createdAt,value
2018-09-01T00:01:05.208Z,7.03
2018-09-01T00:03:36.120Z,6.87
2018-09-01T00:06:07.164Z,6.67
2018-09-01T00:08:37.352Z,6.70
2018-09-01T00:11:07.833Z,7.80
2018-09-01T00:13:38.994Z,5.37
2018-09-01T00:16:09.842Z,6.03
2018-09-01T00:18:40.428Z,5.50
2018-09-01T00:21:10.678Z,4.50
2018-09-01T00:23:41.504Z,4.03
2018-09-01T00:26:12.074Z,4.40
2018-09-01T00:28:42.157Z,6.33
2018-09-01T00:31:12.304Z,4.63
2018-09-01T00:33:43.290Z,5.33
2018-09-01T00:36:14.306Z,7.70
2018-09-01T00:38:49.659Z,5.33
2018-09-01T00:41:20.506Z,4.63
2018-09-01T00:43:51.690Z,5.10
2018-09-01T00:46:21.977Z,4.20
2018-09-01T00:48:52.366Z,6.23
2018-09-01T00:51:23.832Z,5.33
2018-09-01T00:53:54.596Z,4.37
2018-09-01T00:56:25.052Z,6.13
2018-09-01T00:58:55.204Z,5.70
2018-09-01T01:01:26.006Z,4.83
2018-09-01T01:03:56.879Z,6.23
2018-09-01T01:06:27.018Z,4.70
2018-09-01T01:08:57.202Z,4.47
2018-09-01T01:11:28.172Z,4.10
2018-09-01T01:13:59.025Z,4.87
2018-09-01T01:16:29.267Z,4.67
2018-09-01T01:18:59.476Z,4.53
2018-09-01T01:21:30.991Z,6.97
2018-09-01T01:24:02.328Z,3.00
2018-09-01T01:26:32.813Z,2.90
2018-09-01T01:29:03.015Z,4.53
2018-09-01T01:31:33.870Z,4.83
2018-09-01T01:34:05.128Z,6.87
2018-09-01T01:36:35.667Z,3.67
2018-09-01T01:39:07.530Z,6.33
2018-09-01T01:41:38.622Z,4.90
2018-09-01T01:44:09.160Z,4.70
2018-09-01T01:46:39.416Z,3.37
2018-09-01T01:49:10.021Z,5.03
2018-09-01T01:51:41.762Z,3.00
2018-09-01T01:54:12.322Z,3.70
2018-09-01T01:56:42.595Z,4.00
2018-09-01T01:59:12.885Z,4.93
2018-09-01T02:01:43.725Z,5.50
2018-09-01T02:04:14.864Z,6.70
2018-09-01T02:06:45.054Z,5.67
2018-09-01T02:09:15.872Z,4.20
2018-09-01T02:11:46.863Z,4.57
2018-09-01T02:14:17.197Z,6.20
2018-09-01T02:16:47.321Z,6.90
2018-09-01T02:19:18.622Z,5.53
2018-09-01T02:21:50.182Z,3.67
2018-09-01T02:24:20.591Z,4.53
2018-09-01T02:26:50.873Z,3.10
2018-09-01T02:29:21.674Z,4.03
2018-09-01T02:31:52.618Z,2.70
2018-09-01T02:34:22.922Z,5.00
2018-09-01T02:36:53.118Z,5.40
2018-09-01T02:39:24.072Z,3.50
2018-09-01T02:41:55.116Z,4.50
2018-09-01T02:44:25.330Z,7.27
2018-09-01T02:46:55.700Z,3.07
2018-09-01T02:49:26.605Z,5.03
2018-09-01T02:51:57.714Z,4.87
2018-09-01T02:54:28.005Z,4.60
2018-09-01T02:56:58.336Z,3.37
2018-09-01T02:59:29.205Z,3.00
2018-09-01T03:02:00.006Z,4.10
2018-09-01T03:04:30.215Z,3.47
2018-09-01T03:07:01.491Z,5.80
2018-09-01T03:09:32.277Z,3.23
2018-09-01T03:12:03.180Z,5.60
2018-09-01T03:14:33.314Z,4.07
2018-09-01T03:17:03.526Z,4.87
2018-09-01T03:19:34.750Z,2.63
2018-09-01T03:22:05.940Z,5.13
2018-09-01T03:24:36.112Z,4.07
2018-09-01T03:27:13.914Z,6.10
2018-09-01T03:29:44.668Z,5.77
2018-09-01T03:32:15.776Z,4.30
2018-09-01T03:34:46.081Z,5.83
2018-09-01T03:37:16.972Z,3.50
2018-09-01T03:39:47.744Z,3.57
2018-09-01T03:42:18.123Z,5.23
2018-09-01T03:44:48.338Z,4.77
2018-09-01T03:47:19.351Z,3.33
2018-09-01T03:49:50.420Z,4.83
2018-09-01T03:52:20.661Z,5.97
2018-09-01T03:54:50.825Z,5.10
2018-09-01T03:57:21.892Z,5.30
2018-09-01T03:59:53.104Z,3.27
2018-09-01T04:02:23.560Z,4.77
2018-09-01T04:04:53.770Z,4.60
2018-09-01T04:07:24.658Z,5.47
2018-09-01T04:09:55.718Z,5.97
2018-09-01T04:12:26.174Z,4.50
2018-09-01T04:14:56.404Z,6.77
2018-09-01T04:17:27.496Z,5.63
2018-09-01T04:19:58.513Z,6.77
2018-09-01T04:22:28.953Z,5.77
2018-09-01T04:24:59.164Z,6.57
2018-09-01T04:27:30.095Z,6.07
2018-09-01T04:30:00.895Z,6.07
2018-09-01T04:32:31.351Z,5.47
2018-09-01T04:35:01.800Z,5.97
2018-09-01T04:37:32.902Z,4.80
2018-09-01T04:40:03.858Z,5.03
2018-09-01T04:42:34.059Z,5.50
2018-09-01T04:45:04.285Z,4.40
2018-09-01T04:47:35.413Z,4.20
2018-09-01T04:50:06.408Z,5.70
2018-09-01T04:52:36.649Z,5.57
2018-09-01T04:55:06.997Z,4.27
2018-09-01T04:57:38.035Z,6.97
2018-09-01T05:00:09.555Z,7.17
2018-09-01T05:02:39.795Z,4.97
2018-09-01T05:05:09.971Z,6.47
2018-09-01T05:07:41.025Z,7.40
2018-09-01T05:10:11.673Z,3.67
2018-09-01T05:12:41.999Z,6.93
2018-09-01T05:15:12.401Z,6.87
2018-09-01T05:17:43.293Z,4.33
2018-09-01T05:20:13.752Z,9.87
2018-09-01T05:22:43.960Z,7.70
2018-09-01T05:25:14.393Z,4.93
2018-09-01T05:27:45.379Z,4.83
2018-09-01T05:30:16.156Z,5.27
2018-09-01T05:32:46.478Z,9.10
2018-09-01T05:35:17.733Z,7.00
2018-09-01T05:37:48.689Z,5.00
2018-09-01T05:40:18.983Z,6.73
2018-09-01T05:42:52.194Z,8.17
2018-09-01T05:45:23.169Z,5.40
2018-09-01T05:47:55.058Z,4.60
2018-09-01T05:50:25.337Z,6.93
2018-09-01T05:52:55.545Z,5.73
2018-09-01T05:55:26.513Z,4.80
2018-09-01T05:57:57.504Z,7.10
2018-09-01T06:00:27.156Z,4.83
2018-09-01T06:02:57.555Z,4.63
2018-09-01T06:05:28.590Z,4.27
2018-09-01T06:07:59.511Z,7.13
2018-09-01T06:10:30.017Z,3.73
2018-09-01T06:13:01.666Z,5.53
2018-09-01T06:15:32.631Z,6.30
2018-09-01T06:18:03.801Z,7.23
2018-09-01T06:20:34.402Z,5.33
2018-09-01T06:23:04.938Z,5.27
2018-09-01T06:25:35.943Z,5.70
2018-09-01T06:28:12.501Z,6.83
2018-09-01T06:30:47.110Z,6.93
2018-09-01T06:33:19.055Z,6.77
2018-09-01T06:35:50.721Z,5.03
2018-09-01T06:38:22.203Z,7.60
2018-09-01T06:40:52.771Z,7.43
2018-09-01T06:43:23.904Z,6.40
2018-09-01T06:45:55.055Z,6.43
2018-09-01T06:48:25.869Z,5.60
2018-09-01T06:50:57.401Z,5.93
2018-09-01T06:53:29.192Z,6.27
2018-09-01T06:56:00.420Z,4.67
2018-09-01T06:58:30.810Z,3.87
2018-09-01T07:01:01.244Z,6.63
2018-09-01T07:03:32.461Z,5.03
2018-09-01T07:06:03.470Z,3.43
2018-09-01T07:08:33.623Z,5.90
2018-09-01T07:11:04.265Z,6.30
2018-09-01T07:13:35.749Z,7.67
2018-09-01T07:16:06.851Z,6.37
2018-09-01T07:18:37.294Z,6.23
2018-09-01T07:21:07.725Z,8.83
2018-09-01T07:23:39.659Z,5.43
2018-09-01T07:26:10.677Z,4.03
2018-09-01T07:28:41.207Z,6.10
2018-09-01T07:31:11.922Z,4.13
2018-09-01T07:33:43.379Z,8.93
2018-09-01T07:36:15.817Z,4.50
2018-09-01T07:38:46.166Z,6.23
2018-09-01T07:41:17.405Z,6.53
2018-09-01T07:43:48.635Z,8.03
2018-09-01T07:46:20.719Z,6.30
2018-09-01T07:48:51.254Z,4.27
2018-09-01T07:51:22.287Z,6.77
2018-09-01T07:53:53.469Z,6.20
2018-09-01T07:56:23.875Z,5.70
2018-09-01T07:58:54.832Z,7.33
2018-09-01T08:01:25.076Z,3.07
2018-09-01T08:03:56.157Z,8.33
2018-09-01T08:06:26.630Z,6.07
2018-09-01T08:08:57.143Z,7.63
2018-09-01T08:11:28.167Z,5.43
2018-09-01T08:14:00.187Z,5.47
2018-09-01T08:16:30.569Z,6.33
2018-09-01T08:19:01.055Z,4.00
2018-09-01T08:21:36.829Z,6.47
2018-09-01T08:24:08.142Z,5.43
2018-09-01T08:26:39.767Z,7.60
2018-09-01T08:29:10.141Z,5.67
2018-09-01T08:31:41.382Z,6.10
2018-09-01T08:34:12.075Z,6.00
2018-09-01T08:36:43.632Z,4.83
2018-09-01T08:39:14.545Z,5.60
2018-09-01T08:41:45.781Z,4.83
2018-09-01T08:44:16.814Z,6.20
2018-09-01T08:46:47.532Z,6.13
2018-09-01T08:49:19.284Z,4.67
2018-09-01T08:51:51.019Z,4.00
2018-09-01T08:54:21.503Z,5.40
2018-09-01T08:56:53.527Z,5.50
2018-09-01T08:59:24.713Z,7.47
2018-09-01T09:01:56.465Z,7.75
2018-09-01T09:04:28.078Z,5.87
2018-09-01T09:07:02.361Z,6.13
2018-09-01T09:09:34.697Z,5.10
2018-09-01T09:12:09.571Z,4.83
2018-09-01T09:14:41.350Z,4.90
2018-09-01T09:17:11.878Z,5.93
2018-09-01T09:19:43.126Z,5.67
2018-09-01T09:22:14.237Z,5.43
2018-09-01T09:24:44.765Z,4.60
2018-09-01T09:27:19.268Z,5.37
2018-09-01T09:29:50.525Z,9.07
2018-09-01T09:32:20.933Z,3.73
2018-09-01T09:34:51.508Z,6.00
2018-09-01T09:37:22.828Z,6.33
2018-09-01T09:39:56.552Z,8.37
2018-09-01T09:42:27.789Z,8.77
2018-09-01T09:44:58.221Z,6.30
2018-09-01T09:47:29.360Z,6.10
2018-09-01T09:50:00.394Z,3.83
2018-09-01T09:52:32.140Z,5.60
2018-09-01T09:55:02.804Z,10.07
2018-09-01T09:57:33.854Z,5.67
2018-09-01T10:00:06.254Z,10.93
2018-09-01T10:02:36.600Z,9.10
2018-09-01T10:05:10.038Z,6.93
2018-09-01T10:07:42.430Z,5.80
2018-09-01T10:10:14.985Z,8.67
2018-09-01T10:12:45.323Z,6.70
2018-09-01T10:15:16.330Z,6.00
2018-09-01T10:17:47.357Z,5.00
2018-09-01T10:20:17.978Z,5.70
2018-09-01T10:22:48.435Z,4.73
2018-09-01T10:25:19.463Z,6.03
2018-09-01T10:27:50.420Z,6.03
2018-09-01T10:30:20.853Z,5.87
2018-09-01T10:32:51.960Z,9.70
2018-09-01T10:35:24.238Z,4.97
2018-09-01T10:37:55.277Z,6.40
2018-09-01T10:40:25.826Z,5.90
2018-09-01T10:42:56.508Z,4.23
2018-09-01T10:45:28.370Z,6.50
2018-09-01T10:47:59.935Z,6.57
2018-09-01T10:50:30.620Z,5.40
2018-09-01T10:53:01.492Z,5.97
2018-09-01T10:55:33.010Z,7.57
2018-09-01T10:58:04.654Z,6.03
2018-09-01T11:00:37.312Z,6.73
2018-09-01T11:03:09.610Z,8.93
2018-09-01T11:05:40.890Z,5.47
2018-09-01T11:08:11.678Z,4.63
2018-09-01T11:10:42.804Z,6.57
2018-09-01T11:13:13.203Z,5.13
2018-09-01T11:15:44.678Z,6.73
2018-09-01T11:18:15.148Z,5.83
2018-09-01T11:20:46.064Z,8.53
2018-09-01T11:23:17.376Z,7.23
2018-09-01T11:25:48.738Z,5.63
2018-09-01T11:28:20.286Z,4.97
2018-09-01T11:30:50.776Z,8.13
2018-09-01T11:33:21.958Z,6.67
2018-09-01T11:35:53.368Z,5.93
2018-09-01T11:38:23.870Z,8.00
2018-09-01T11:40:54.233Z,5.47
2018-09-01T11:43:25.197Z,7.73
2018-09-01T11:45:56.164Z,3.70
2018-09-01T11:48:26.340Z,7.33
2018-09-01T11:50:57.031Z,4.70
2018-09-01T11:53:28.806Z,8.57
2018-09-01T11:56:00.517Z,4.95
2018-09-01T11:58:30.978Z,4.43
2018-09-01T12:01:01.528Z,6.77
2018-09-01T12:03:32.588Z,5.93
2018-09-01T12:06:03.601Z,3.60
2018-09-01T12:08:34.168Z,5.23
2018-09-01T12:11:05.117Z,6.97
2018-09-01T12:13:36.148Z,6.30
2018-09-01T12:16:08.334Z,5.42
2018-09-01T12:18:39.418Z,4.55
2018-09-01T12:21:09.832Z,7.27
2018-09-01T12:23:41.420Z,5.00
2018-09-01T12:26:12.642Z,7.00
2018-09-01T12:28:44.086Z,4.17
2018-09-01T12:31:15.216Z,5.17
2018-09-01T12:33:46.278Z,7.77
2018-09-01T12:36:16.855Z,4.63
2018-09-01T12:38:47.300Z,5.37
2018-09-01T12:41:18.368Z,6.87
2018-09-01T12:43:49.385Z,6.03
2018-09-01T12:46:19.762Z,6.83
2018-09-01T12:48:50.147Z,7.57
2018-09-01T12:51:22.455Z,8.20
2018-09-01T12:53:54.570Z,7.47
2018-09-01T12:56:25.148Z,4.77
2018-09-01T12:58:56.539Z,8.50
2018-09-01T13:01:27.476Z,7.03
2018-09-01T13:04:00.647Z,6.50
2018-09-01T13:06:31.060Z,6.13
2018-09-01T13:09:01.302Z,11.17
2018-09-01T13:11:32.276Z,6.90
2018-09-01T13:14:03.639Z,7.10
2018-09-01T13:16:34.241Z,6.20
2018-09-01T13:19:04.822Z,9.27
2018-09-01T13:21:35.998Z,8.20
2018-09-01T13:24:07.231Z,8.93
2018-09-01T13:26:37.670Z,6.23
2018-09-01T13:29:07.932Z,7.13
2018-09-01T13:31:39.595Z,7.53
2018-09-01T13:34:10.402Z,8.60
2018-09-01T13:36:40.766Z,12.97
2018-09-01T13:39:11.063Z,8.07
2018-09-01T13:41:42.085Z,9.57
2018-09-01T13:44:13.675Z,7.67
2018-09-01T13:46:44.201Z,7.73
2018-09-01T13:49:14.658Z,9.57
2018-09-01T13:51:45.671Z,8.33
2018-09-01T13:54:15.979Z,7.17
2018-09-01T13:56:46.373Z,8.47
2018-09-01T13:59:17.397Z,7.10
2018-09-01T14:01:48.567Z,8.37
2018-09-01T14:04:18.989Z,13.17
2018-09-01T14:06:49.361Z,8.17
2018-09-01T14:09:20.370Z,8.07
2018-09-01T14:11:51.645Z,7.03
2018-09-01T14:14:23.278Z,9.57
2018-09-01T14:16:54.053Z,7.10
2018-09-01T14:19:25.217Z,9.47
2018-09-01T14:22:02.567Z,13.07
2018-09-01T14:24:33.015Z,11.53
2018-09-01T14:27:03.793Z,12.43
2018-09-01T14:29:34.948Z,8.13
2018-09-01T14:32:06.281Z,8.10
2018-09-01T14:34:36.680Z,8.53
2018-09-01T14:37:07.715Z,11.03
2018-09-01T14:39:38.926Z,12.10
2018-09-01T14:42:10.125Z,9.10
2018-09-01T14:44:40.414Z,13.07
2018-09-01T14:47:11.031Z,7.57
2018-09-01T14:49:42.284Z,11.20
2018-09-01T14:52:12.850Z,9.60
2018-09-01T14:54:44.418Z,10.03
2018-09-01T14:57:14.827Z,11.03
2018-09-01T14:59:46.452Z,13.47
2018-09-01T15:02:17.022Z,10.13
2018-09-01T15:04:48.577Z,11.17
2018-09-01T15:07:19.758Z,8.80
2018-09-01T15:09:50.851Z,12.23
2018-09-01T15:12:21.589Z,9.20
2018-09-01T15:14:53.255Z,9.50
2018-09-01T15:17:30.481Z,11.63
2018-09-01T15:20:01.627Z,8.73
2018-09-01T15:22:32.256Z,8.67
2018-09-01T15:25:02.839Z,10.07
2018-09-01T15:27:34.039Z,8.93
2018-09-01T15:30:05.141Z,7.90
2018-09-01T15:32:35.654Z,10.43
2018-09-01T15:35:06.607Z,8.50
2018-09-01T15:37:37.785Z,9.37
2018-09-01T15:40:09.025Z,11.40
2018-09-01T15:42:39.800Z,14.13
2018-09-01T15:45:10.256Z,11.43
2018-09-01T15:47:41.517Z,9.27
2018-09-01T15:50:12.217Z,13.10
2018-09-01T15:52:42.638Z,9.57
2018-09-01T15:55:13.037Z,8.37
2018-09-01T15:57:44.601Z,11.50
2018-09-01T16:00:15.150Z,9.83
2018-09-01T16:02:45.572Z,7.73
2018-09-01T16:05:16.875Z,12.00
2018-09-01T16:07:47.915Z,9.23
2018-09-01T16:10:18.272Z,11.37
2018-09-01T16:12:49.074Z,12.10
2018-09-01T16:15:21.497Z,11.30
2018-09-01T16:17:52.593Z,8.33
2018-09-01T16:20:22.875Z,10.17
2018-09-01T16:22:53.395Z,9.27
2018-09-01T16:25:24.429Z,7.40
2018-09-01T16:27:56.289Z,8.43
2018-09-01T16:30:27.200Z,7.17
2018-09-01T16:32:57.751Z,8.97
2018-09-01T16:35:28.857Z,9.17
2018-09-01T16:37:59.824Z,10.03
2018-09-01T16:40:30.341Z,10.53
2018-09-01T16:43:00.944Z,10.73
2018-09-01T16:45:31.870Z,8.90
2018-09-01T16:48:03.148Z,10.70
2018-09-01T16:50:33.440Z,14.10
2018-09-01T16:53:04.130Z,10.03
2018-09-01T16:55:36.022Z,10.67
2018-09-01T16:58:07.253Z,10.47
2018-09-01T17:00:37.731Z,11.90
2018-09-01T17:03:08.307Z,11.97
2018-09-01T17:05:39.286Z,10.30
2018-09-01T17:08:10.904Z,9.10
2018-09-01T17:10:41.243Z,12.57
2018-09-01T17:13:12.251Z,13.03
2018-09-01T17:15:43.247Z,11.03
2018-09-01T17:18:13.948Z,10.97
2018-09-01T17:20:45.668Z,11.33
2018-09-01T17:23:18.506Z,12.27
2018-09-01T17:25:49.746Z,17.10
2018-09-01T17:28:21.450Z,12.23
2018-09-01T17:30:51.983Z,19.80
2018-09-01T17:33:23.362Z,44.60
2018-09-01T17:35:54.945Z,17.23
2018-09-01T17:38:25.374Z,16.20
2018-09-01T17:40:57.337Z,31.13
2018-09-01T17:43:28.480Z,50.77
2018-09-01T17:45:59.440Z,17.60
2018-09-01T17:48:30.018Z,14.10
2018-09-01T17:51:00.888Z,16.10
2018-09-01T17:53:32.009Z,13.40
2018-09-01T17:56:03.255Z,10.33
2018-09-01T17:58:33.640Z,10.13
2018-09-01T18:01:04.161Z,15.07
2018-09-01T18:03:35.257Z,14.27
2018-09-01T18:06:07.371Z,11.90
2018-09-01T18:08:38.901Z,11.30
2018-09-01T18:11:11.141Z,10.30
2018-09-01T18:13:44.000Z,11.07
2018-09-01T18:16:15.117Z,13.23
2018-09-01T18:18:45.430Z,12.53
2018-09-01T18:21:15.893Z,10.63
2018-09-01T18:23:47.078Z,10.70
2018-09-01T18:26:17.518Z,11.80
2018-09-01T18:28:48.311Z,12.57
2018-09-01T18:31:19.457Z,10.93
2018-09-01T18:33:50.638Z,13.73
2018-09-01T18:36:20.955Z,11.73
2018-09-01T18:38:51.594Z,12.57
2018-09-01T18:41:23.250Z,12.03
2018-09-01T18:43:54.253Z,13.87
2018-09-01T18:46:24.800Z,9.57
2018-09-01T18:48:55.110Z,11.17
2018-09-01T18:51:26.530Z,11.23
2018-09-01T18:53:59.077Z,11.90
2018-09-01T18:56:29.793Z,7.77
2018-09-01T18:59:00.096Z,9.20
2018-09-01T19:01:31.537Z,11.77
2018-09-01T19:04:02.514Z,11.87
2018-09-01T19:06:32.716Z,7.93
2018-09-01T19:09:03.564Z,10.83
2018-09-01T19:11:34.676Z,9.17
2018-09-01T19:14:06.308Z,8.07
2018-09-01T19:16:36.517Z,11.47
2018-09-01T19:19:07.397Z,8.17
2018-09-01T19:21:38.387Z,8.20
2018-09-01T19:24:10.113Z,9.23
2018-09-01T19:26:41.369Z,10.40
2018-09-01T19:29:11.873Z,10.30
2018-09-01T19:31:43.883Z,9.30
2018-09-01T19:34:15.010Z,9.33
2018-09-01T19:36:45.308Z,11.07
2018-09-01T19:39:16.413Z,8.50
2018-09-01T19:41:47.421Z,10.57
2018-09-01T19:44:17.775Z,10.93
2018-09-01T19:46:49.804Z,9.67
2018-09-01T19:49:21.581Z,12.57
2018-09-01T19:51:52.634Z,9.83
2018-09-01T19:54:24.172Z,10.03
2018-09-01T19:56:54.557Z,9.20
2018-09-01T19:59:25.811Z,9.87
2018-09-01T20:01:56.995Z,9.47
2018-09-01T20:04:28.372Z,8.73
2018-09-01T20:06:58.813Z,9.20
2018-09-01T20:09:29.692Z,9.33
2018-09-01T20:12:01.575Z,9.77
2018-09-01T20:14:31.766Z,10.97
2018-09-01T20:17:02.217Z,11.13
2018-09-01T20:19:34.141Z,8.80
2018-09-01T20:22:05.041Z,8.10
2018-09-01T20:24:35.344Z,10.20
2018-09-01T20:27:05.648Z,12.03
2018-09-01T20:29:37.018Z,10.73
2018-09-01T20:32:08.088Z,12.07
2018-09-01T20:34:48.442Z,11.13
2018-09-01T20:37:21.518Z,10.87
2018-09-01T20:39:52.520Z,11.27
2018-09-01T20:42:22.586Z,10.83
2018-09-01T20:44:54.556Z,12.53
2018-09-01T20:47:25.613Z,12.87
2018-09-01T20:49:58.457Z,12.93
2018-09-01T20:52:28.981Z,11.90
2018-09-01T20:54:59.500Z,13.73
